Time;durP1;ratioP1;P1;durP2;ratioP2;P2;SDS_P1;SDS_P2;PMS_P1;PMS_P2;Temp;Humidity;BMP_temperature;BMP_pressure;BME280_temperature;BME280_humidity;BME280_pressure;Samples;Min_cycle;Max_cycle;Signal;HPM_P1;HPM_P2
2023/06/29 00:01:24;;;;;;;5.62;2.95;;;;;;;;;;4397048;32;60170;-59
2023/06/29 00:04:11;;;;;;;4.18;2.83;;;;;;;;;;4375187;32;70684;-59
2023/06/29 00:06:57;;;;;;;5.22;2.67;;;;;;;;;;4375648;32;68840;-58
2023/06/29 00:09:44;;;;;;;4.07;2.47;;;;;;;;;;4396625;32;67622;-58
2023/06/29 00:12:31;;;;;;;3.97;2.80;;;;;;;;;;4364208;32;72007;-58
2023/06/29 00:15:18;;;;;;;4.47;2.67;;;;;;;;;;4386242;32;65733;-57
2023/06/29 00:18:05;;;;;;;;;;;;;;;;;;4364621;32;68349;-58
2023/06/29 00:20:51;;;;;;;4.82;2.70;;;;;;;;;;4396867;32;58682;-59
2023/06/29 00:23:38;;;;;;;;;;;;;;;;;;4385536;32;70515;-59
2023/06/29 00:26:28;;;;;;;5.40;2.75;;;;;;;;;;4396447;32;64970;-58
2023/06/29 00:29:15;;;;;;;4.22;2.70;;;;;;;;;;4385684;32;66917;-60
2023/06/29 00:32:02;;;;;;;4.95;3.12;;;;;;;;;;4375324;32;60829;-60
2023/06/29 00:34:49;;;;;;;7.37;2.92;;;;;;;;;;4374279;32;71028;-59
2023/06/29 00:37:36;;;;;;;4.87;2.87;;;;;;;;;;4388469;32;69350;-59
2023/06/29 00:40:22;;;;;;;4.25;2.80;;;;;;;;;;4389298;32;67584;-59
2023/06/29 00:43:09;;;;;;;;;;;;;;;;;;4388994;32;71736;-59
2023/06/29 00:45:56;;;;;;;5.37;2.85;;;;;;;;;;4387915;32;69759;-59
2023/06/29 00:48:43;;;;;;;4.45;2.87;;;;;;;;;;4388028;32;68212;-59
2023/06/29 00:51:31;;;;;;;;;;;;;;;;;;4377767;32;67409;-58
2023/06/29 00:54:18;;;;;;;4.37;2.70;;;;;;;;;;4400184;32;71292;-59
2023/06/29 00:57:04;;;;;;;;;;;;;;;;;;4377973;32;66273;-59
2023/06/29 00:59:54;;;;;;;4.45;3.15;;;;;;;;;;4388565;32;67168;-58
2023/06/29 01:02:41;;;;;;;5.78;2.58;;;;;;;;;;4399054;32;59684;-58
2023/06/29 01:05:33;;;;;;;4.75;2.80;;;;;;;;;;4390220;32;70571;-58
2023/06/29 01:08:28;;;;;;;4.95;2.90;;;;;;;;;;4390359;32;68429;-59
2023/06/29 01:11:15;;;;;;;5.43;2.60;;;;;;;;;;4388182;32;67046;-59
2023/06/29 01:14:04;;;;;;;6.10;3.60;;;;;;;;;;4388255;32;60102;-59
2023/06/29 01:16:52;;;;;;;4.68;2.92;;;;;;;;;;4398540;32;69535;-58
2023/06/29 01:19:43;;;;;;;4.18;2.87;;;;;;;;;;4387244;32;70392;-59
2023/06/29 01:22:32;;;;;;;5.90;2.90;;;;;;;;;;4387671;32;67239;-58
2023/06/29 01:25:19;;;;;;;5.22;2.80;;;;;;;;;;4387531;32;71737;-58
2023/06/29 01:28:09;;;;;;;5.15;2.75;;;;;;;;;;4388281;32;65934;-59
2023/06/29 01:30:56;;;;;;;5.90;2.87;;;;;;;;;;4398771;32;68215;-58
2023/06/29 01:33:45;;;;;;;4.57;2.70;;;;;;;;;;4377610;32;59065;-59
2023/06/29 01:36:42;;;;;;;7.22;2.80;;;;;;;;;;4376958;32;71716;-59
2023/06/29 01:39:31;;;;;;;3.85;2.70;;;;;;;;;;4398291;32;65981;-60
2023/06/29 01:42:19;;;;;;;4.87;3.20;;;;;;;;;;4397816;32;67569;-58
2023/06/29 01:45:07;;;;;;;6.40;3.00;;;;;;;;;;4388005;32;60157;-59
2023/06/29 01:47:54;;;;;;;5.85;2.90;;;;;;;;;;4386994;32;71206;-60
2023/06/29 01:50:41;;;;;;;5.78;3.33;;;;;;;;;;4376822;32;69342;-59
2023/06/29 01:53:28;;;;;;;6.37;3.70;;;;;;;;;;4376832;32;67684;-59
2023/06/29 01:56:15;;;;;;;4.60;3.20;;;;;;;;;;4387534;32;71623;-59
2023/06/29 01:59:03;;;;;;;5.30;3.50;;;;;;;;;;4388288;32;64919;-59
2023/06/29 02:01:50;;;;;;;6.35;3.28;;;;;;;;;;4387884;32;69508;-59
2023/06/29 02:04:37;;;;;;;5.35;3.33;;;;;;;;;;4399206;32;67884;-58
2023/06/29 02:07:23;;;;;;;5.10;3.50;;;;;;;;;;4376048;32;72338;-59
2023/06/29 02:10:10;;;;;;;8.02;3.10;;;;;;;;;;4387427;32;64822;-59
2023/06/29 02:12:56;;;;;;;8.48;3.75;;;;;;;;;;4376622;32;68171;-59
2023/06/29 02:15:44;;;;;;;5.00;3.15;;;;;;;;;;4398298;32;60160;-60
2023/06/29 02:18:31;;;;;;;8.75;3.60;;;;;;;;;;4397886;32;69701;-59
2023/06/29 02:21:18;;;;;;;7.40;3.62;;;;;;;;;;4376128;32;68827;-58
2023/06/29 02:24:04;;;;;;;;;;;;;;;;;;4398416;32;67311;-58
2023/06/29 02:26:51;;;;;;;6.22;3.80;;;;;;;;;;4399675;32;58881;-59
2023/06/29 02:29:38;;;;;;;4.97;2.90;;;;;;;;;;4397905;32;70338;-58
2023/06/29 02:32:25;;;;;;;;;;;;;;;;;;4387254;32;69464;-59
2023/06/29 02:35:11;;;;;;;5.00;3.30;;;;;;;;;;4398358;32;66545;-59
2023/06/29 02:37:58;;;;;;;;;;;;;;;;;;4378327;32;72041;-58
2023/06/29 02:40:45;;;;;;;7.22;3.15;;;;;;;;;;4398344;32;66345;-58
2023/06/29 02:43:33;;;;;;;4.70;3.20;;;;;;;;;;4380473;32;68294;-59
2023/06/29 02:46:20;;;;;;;5.32;3.30;;;;;;;;;;4399050;32;60420;-58
2023/06/29 02:49:07;;;;;;;;;;;;;;;;;;4376232;32;70567;-58
2023/06/29 02:51:53;;;;;;;7.60;3.17;;;;;;;;;;4386593;32;67201;-58
2023/06/29 02:54:39;;;;;;;5.35;3.55;;;;;;;;;;4386935;32;67769;-59
2023/06/29 02:57:26;;;;;;;4.85;3.10;;;;;;;;;;4397688;32;60098;-58
2023/06/29 03:00:13;;;;;;;5.87;3.15;;;;;;;;;;4386424;32;70437;-59
2023/06/29 03:03:00;;;;;;;4.95;3.25;;;;;;;;;;4376138;32;68331;-59
2023/06/29 03:05:47;;;;;;;5.07;3.12;;;;;;;;;;4377420;32;68638;-58
2023/06/29 03:08:34;;;;;;;4.60;2.97;;;;;;;;;;4375914;32;72079;-60
2023/06/29 03:11:21;;;;;;;4.68;2.80;;;;;;;;;;4386905;32;66203;-60
2023/06/29 03:14:08;;;;;;;4.93;3.05;;;;;;;;;;4386808;32;68286;-58
2023/06/29 03:16:55;;;;;;;4.45;3.00;;;;;;;;;;4376009;32;67831;-57
2023/06/29 03:19:42;;;;;;;5.18;3.22;;;;;;;;;;4388297;32;71580;-58
2023/06/29 03:22:29;;;;;;;4.55;3.03;;;;;;;;;;4386546;32;65786;-59
2023/06/29 03:25:16;;;;;;;3.55;2.87;;;;;;;;;;4365048;32;68112;-59
2023/06/29 03:28:03;;;;;;;4.43;3.10;;;;;;;;;;4397305;32;60351;-60
2023/06/29 03:30:51;;;;;;;5.07;2.67;;;;;;;;;;4386529;32;70591;-58
2023/06/29 03:33:37;;;;;;;4.43;2.67;;;;;;;;;;4397133;32;69378;-59
2023/06/29 03:36:24;;;;;;;4.18;2.80;;;;;;;;;;4397795;32;67400;-59
2023/06/29 03:39:11;;;;;;;4.07;2.72;;;;;;;;;;4375578;32;59922;-59
2023/06/29 03:41:58;;;;;;;4.28;3.12;;;;;;;;;;4386137;32;70389;-59
2023/06/29 03:44:45;;;;;;;7.03;3.80;;;;;;;;;;4375763;32;69341;-58
2023/06/29 03:47:31;;;;;;;;;;;;;;;;;;4377054;32;66330;-59
2023/06/29 03:50:18;;;;;;;4.70;2.80;;;;;;;;;;4396523;32;71424;-59
2023/06/29 03:53:05;;;;;;;5.37;3.10;;;;;;;;;;4386196;32;65896;-58
2023/06/29 03:55:51;;;;;;;4.70;3.08;;;;;;;;;;4386088;32;68057;-58
2023/06/29 03:58:38;;;;;;;5.78;3.45;;;;;;;;;;4375654;32;59175;-59
2023/06/29 04:01:24;;;;;;;3.87;2.87;;;;;;;;;;4385836;32;70449;-59
2023/06/29 04:04:12;;;;;;;7.45;3.67;;;;;;;;;;4385479;32;67128;-59
2023/06/29 04:06:58;;;;;;;3.70;2.58;;;;;;;;;;4374407;32;68244;-59
2023/06/29 04:09:45;;;;;;;4.65;2.97;;;;;;;;;;4386220;32;59174;-59
2023/06/29 04:12:32;;;;;;;;;;;;;;;;;;4388232;32;71025;-58
2023/06/29 04:15:19;;;;;;;3.95;2.78;;;;;;;;;;4379382;32;69491;-58
2023/06/29 04:18:05;;;;;;;6.80;3.12;;;;;;;;;;4378019;32;66674;-58
2023/06/29 04:20:53;;;;;;;4.50;2.83;;;;;;;;;;4388746;32;71566;-58
2023/06/29 04:23:40;;;;;;;5.05;3.00;;;;;;;;;;4366984;32;67235;-59
2023/06/29 04:26:27;;;;;;;7.20;3.12;;;;;;;;;;4388781;32;67743;-59
2023/06/29 04:29:14;;;;;;;4.47;2.83;;;;;;;;;;4378103;32;67564;-59
2023/06/29 04:32:01;;;;;;;5.43;2.95;;;;;;;;;;4388543;32;70942;-59
2023/06/29 04:34:47;;;;;;;;;;;;;;;;;;4388904;32;65850;-60
2023/06/29 04:37:40;;;;;;;4.45;2.65;;;;;;;;;;4377096;32;68796;-59
2023/06/29 04:40:27;;;;;;;5.03;3.00;;;;;;;;;;4388712;32;59981;-59
2023/06/29 04:43:14;;;;;;;4.87;3.00;;;;;;;;;;4388399;32;69631;-59
2023/06/29 04:46:00;;;;;;;;;;;;;;;;;;4400974;32;68348;-58
2023/06/29 04:48:47;;;;;;;7.00;3.92;;;;;;;;;;4387429;32;64975;-59
2023/06/29 04:51:34;;;;;;;;;;;;;;;;;;4377356;32;72334;-59
2023/06/29 04:54:22;;;;;;;3.83;2.58;;;;;;;;;;4388661;32;69052;-59
2023/06/29 04:57:08;;;;;;;4.35;2.87;;;;;;;;;;4377616;32;69129;-58
2023/06/29 04:59:54;;;;;;;;;;;;;;;;;;4388519;32;67370;-58
2023/06/29 05:02:42;;;;;;;4.85;2.87;;;;;;;;;;4377370;32;71460;-59
2023/06/29 05:05:28;;;;;;;5.80;3.03;;;;;;;;;;4389243;32;66322;-60
2023/06/29 05:08:15;;;;;;;5.15;3.40;;;;;;;;;;4379864;32;68276;-60
2023/06/29 05:11:03;;;;;;;5.53;3.15;;;;;;;;;;4388643;32;60202;-59
2023/06/29 05:13:49;;;;;;;5.05;3.17;;;;;;;;;;4387411;32;70673;-58
2023/06/29 05:16:36;;;;;;;5.00;2.85;;;;;;;;;;4377468;32;69497;-60
2023/06/29 05:19:23;;;;;;;;;;;;;;;;;;4377624;32;67222;-58
2023/06/29 05:22:10;;;;;;;4.12;2.60;;;;;;;;;;4399986;32;59000;-59
2023/06/29 05:24:57;;;;;;;5.05;2.75;;;;;;;;;;4377075;32;70466;-59
2023/06/29 05:27:44;;;;;;;4.03;2.70;;;;;;;;;;4377822;32;68378;-58
2023/06/29 05:30:30;;;;;;;;;;;;;;;;;;4402343;32;66561;-57
2023/06/29 05:33:17;;;;;;;4.95;3.00;;;;;;;;;;4401851;32;70972;-59
2023/06/29 05:36:04;;;;;;;4.65;2.85;;;;;;;;;;4368283;32;66879;-59
2023/06/29 05:38:51;;;;;;;3.80;2.80;;;;;;;;;;4378763;32;66856;-58
2023/06/29 05:41:37;;;;;;;;;;;;;;;;;;4379127;32;66621;-59
2023/06/29 05:44:25;;;;;;;3.62;2.30;;;;;;;;;;4387858;32;71538;-59
2023/06/29 05:47:11;;;;;;;;;;;;;;;;;;4388149;32;64916;-59
2023/06/29 05:49:58;;;;;;;3.70;2.53;;;;;;;;;;4397531;32;68112;-58
2023/06/29 05:52:45;;;;;;;4.12;2.50;;;;;;;;;;4398430;32;59131;-58
2023/06/29 05:55:31;;;;;;;4.25;2.70;;;;;;;;;;4398082;32;70497;-59
2023/06/29 05:58:18;;;;;;;4.25;2.90;;;;;;;;;;4398006;32;69116;-59
2023/06/29 06:01:05;;;;;;;3.42;2.40;;;;;;;;;;4386672;32;68187;-59
2023/06/29 06:03:54;;;;;;;3.67;2.50;;;;;;;;;;4387890;32;71641;-57
2023/06/29 06:06:40;;;;;;;4.40;2.80;;;;;;;;;;4397445;32;71620;-59
2023/06/29 06:09:28;;;;;;;3.72;2.40;;;;;;;;;;4387459;32;69147;-58
2023/06/29 06:12:14;;;;;;;;;;;;;;;;;;4387781;32;66764;-59
2023/06/29 06:15:01;;;;;;;5.22;2.28;;;;;;;;;;4399976;32;71763;-60
2023/06/29 06:17:48;;;;;;;5.75;2.70;;;;;;;;;;4386791;32;66083;-59
2023/06/29 06:20:35;;;;;;;4.05;2.53;;;;;;;;;;4387311;32;68197;-58
2023/06/29 06:23:21;;;;;;;;;;;;;;;;;;4398388;32;60328;-58
2023/06/29 06:26:09;;;;;;;3.12;2.17;;;;;;;;;;4387347;32;69531;-60
2023/06/29 06:28:55;;;;;;;4.18;2.83;;;;;;;;;;4386903;32;69329;-59
2023/06/29 06:31:42;;;;;;;4.32;2.70;;;;;;;;;;4376367;32;67136;-59
2023/06/29 06:34:30;;;;;;;4.07;2.40;;;;;;;;;;4364754;32;61017;-58
2023/06/29 06:37:18;;;;;;;3.50;2.30;;;;;;;;;;4376428;32;69927;-58
2023/06/29 06:40:08;;;;;;;4.05;2.62;;;;;;;;;;4376139;32;69314;-58
2023/06/29 06:42:55;;;;;;;4.65;2.80;;;;;;;;;;4376806;32;68319;-58
2023/06/29 06:45:41;;;;;;;;;;;;;;;;;;4387071;32;72160;-59
2023/06/29 06:48:29;;;;;;;3.97;2.80;;;;;;;;;;4397075;32;66983;-59
2023/06/29 06:51:15;;;;;;;5.78;2.60;;;;;;;;;;4397621;32;66920;-58
2023/06/29 06:54:02;;;;;;;4.03;2.90;;;;;;;;;;4387081;32;60069;-59
2023/06/29 06:56:51;;;;;;;4.43;2.60;;;;;;;;;;4386820;32;72034;-59
2023/06/29 06:59:38;;;;;;;5.15;2.70;;;;;;;;;;4376191;32;67284;-59
2023/06/29 07:02:24;;;;;;;;;;;;;;;;;;4365439;32;66221;-58
2023/06/29 07:05:11;;;;;;;5.90;2.72;;;;;;;;;;4376968;32;59433;-59
2023/06/29 07:07:58;;;;;;;;;;;;;;;;;;4377873;32;69826;-59
2023/06/29 07:10:44;;;;;;;3.67;2.90;;;;;;;;;;4377434;32;68302;-59
2023/06/29 07:13:31;;;;;;;;;;;;;;;;;;4387307;32;66902;-58
2023/06/29 07:16:18;;;;;;;3.92;2.65;;;;;;;;;;4375580;32;72529;-59
2023/06/29 07:19:09;;;;;;;4.00;2.40;;;;;;;;;;4365434;32;67018;-58
2023/06/29 07:21:55;;;;;;;4.05;2.58;;;;;;;;;;4386702;32;69290;-59
2023/06/29 07:24:42;;;;;;;;;;;;;;;;;;4375733;32;68296;-58
2023/06/29 07:27:30;;;;;;;4.18;3.12;;;;;;;;;;4397430;32;71750;-58
2023/06/29 07:30:17;;;;;;;6.00;2.47;;;;;;;;;;4386137;32;66393;-58
2023/06/29 07:33:03;;;;;;;;;;;;;;;;;;4386710;32;67779;-59
2023/06/29 07:35:50;;;;;;;4.22;2.92;;;;;;;;;;4397450;32;58626;-59
2023/06/29 07:38:36;;;;;;;3.72;2.67;;;;;;;;;;4396992;32;69182;-59
2023/06/29 07:41:23;;;;;;;4.70;2.78;;;;;;;;;;4386368;32;69190;-58
2023/06/29 07:44:10;;;;;;;4.50;2.80;;;;;;;;;;4396827;32;67866;-59
2023/06/29 07:47:17;;;;;;;3.58;2.40;;;;;;;;;;4371236;32;59792;-59
2023/06/29 07:50:04;;;;;;;3.35;2.40;;;;;;;;;;4396485;32;69661;-58
2023/06/29 07:52:51;;;;;;;2.75;2.28;;;;;;;;;;4385961;32;69917;-59
2023/06/29 07:55:38;;;;;;;3.45;2.15;;;;;;;;;;4386413;32;66776;-59
2023/06/29 07:58:26;;;;;;;4.05;2.22;;;;;;;;;;4397848;32;71495;-59
2023/06/29 08:01:12;;;;;;;2.30;2.03;;;;;;;;;;4375233;32;65861;-60
2023/06/29 08:04:00;;;;;;;4.55;2.58;;;;;;;;;;4396828;32;67646;-59
2023/06/29 08:06:46;;;;;;;3.87;2.50;;;;;;;;;;4386269;32;59438;-59
2023/06/29 08:09:33;;;;;;;4.28;2.67;;;;;;;;;;4396357;32;71780;-59
2023/06/29 08:12:20;;;;;;;4.53;2.78;;;;;;;;;;4375342;32;65171;-59
2023/06/29 08:15:07;;;;;;;2.75;2.10;;;;;;;;;;4396790;32;67964;-57
2023/06/29 08:17:54;;;;;;;2.53;1.87;;;;;;;;;;4386128;32;60055;-58
2023/06/29 08:20:41;;;;;;;3.50;2.45;;;;;;;;;;4395993;32;70608;-58
2023/06/29 08:23:27;;;;;;;3.55;2.35;;;;;;;;;;4395977;32;70174;-59
2023/06/29 08:26:15;;;;;;;3.28;2.40;;;;;;;;;;4385721;32;67601;-59
2023/06/29 08:29:01;;;;;;;5.00;2.22;;;;;;;;;;4385577;32;71779;-59
2023/06/29 08:31:48;;;;;;;3.22;2.37;;;;;;;;;;4385512;32;67454;-58
2023/06/29 08:34:35;;;;;;;3.12;2.37;;;;;;;;;;4385643;32;69293;-59
2023/06/29 08:37:22;;;;;;;3.03;1.87;;;;;;;;;;4397909;32;67652;-58
2023/06/29 08:40:09;;;;;;;3.60;2.08;;;;;;;;;;4385471;32;71668;-59
2023/06/29 08:42:56;;;;;;;4.00;2.03;;;;;;;;;;4375043;32;65900;-59
2023/06/29 08:45:43;;;;;;;3.08;2.45;;;;;;;;;;4364225;32;68946;-59
2023/06/29 08:48:33;;;;;;;2.60;2.08;;;;;;;;;;4397676;32;59501;-59
2023/06/29 08:51:22;;;;;;;2.70;2.03;;;;;;;;;;4385520;32;70401;-59
2023/06/29 08:54:10;;;;;;;3.03;2.20;;;;;;;;;;4386482;32;69301;-58
2023/06/29 08:56:57;;;;;;;2.50;2.17;;;;;;;;;;4388135;32;66775;-59
2023/06/29 08:59:45;;;;;;;3.75;2.47;;;;;;;;;;4378145;32;59333;-58
2023/06/29 09:02:33;;;;;;;4.35;2.30;;;;;;;;;;4387567;32;71156;-57
2023/06/29 09:05:22;;;;;;;3.55;2.40;;;;;;;;;;4388646;32;68304;-59
2023/06/29 09:08:08;;;;;;;3.87;2.40;;;;;;;;;;4400816;32;66696;-59
2023/06/29 09:10:55;;;;;;;5.35;2.85;;;;;;;;;;4403401;32;70994;-59
2023/06/29 09:13:42;;;;;;;;;;;;;;;;;;4378200;32;65780;-57
2023/06/29 09:16:28;;;;;;;3.08;2.35;;;;;;;;;;4387815;32;67561;-65
2023/06/29 09:19:16;;;;;;;3.97;2.42;;;;;;;;;;4378155;32;59914;-58
2023/06/29 09:22:03;;;;;;;3.72;2.22;;;;;;;;;;4400151;32;70635;-59
2023/06/29 09:24:51;;;;;;;2.42;2.00;;;;;;;;;;4389042;32;64862;-58
2023/06/29 09:27:38;;;;;;;3.28;2.10;;;;;;;;;;4378460;32;67641;-59
2023/06/29 09:30:25;;;;;;;3.37;2.40;;;;;;;;;;4377589;32;59148;-58
2023/06/29 09:33:13;;;;;;;4.18;2.10;;;;;;;;;;4377399;32;70150;-58
2023/06/29 09:36:07;;;;;;;2.95;2.10;;;;;;;;;;4398466;32;69308;-58
2023/06/29 09:38:55;;;;;;;4.22;2.22;;;;;;;;;;4398312;32;67028;-58
2023/06/29 09:41:58;;;;;;;4.62;2.60;;;;;;;;;;4377066;32;71962;-59
2023/06/29 09:44:45;;;;;;;4.03;2.40;;;;;;;;;;4388012;32;66205;-59
2023/06/29 09:47:32;;;;;;;4.12;2.20;;;;;;;;;;4377130;32;67828;-58
2023/06/29 09:50:20;;;;;;;2.70;2.20;;;;;;;;;;4386843;32;68477;-59
2023/06/29 09:53:09;;;;;;;3.40;2.33;;;;;;;;;;4386694;32;72417;-58
2023/06/29 09:55:58;;;;;;;4.00;2.58;;;;;;;;;;4376963;32;64007;-59
2023/06/29 09:58:46;;;;;;;2.85;2.10;;;;;;;;;;4398293;32;67989;-58
2023/06/29 10:01:32;;;;;;;3.65;2.28;;;;;;;;;;4387840;32;60008;-59
2023/06/29 10:04:19;;;;;;;3.33;2.40;;;;;;;;;;4386994;32;69098;-59
2023/06/29 10:07:26;;;;;;;3.35;2.50;;;;;;;;;;4376902;32;69262;-59
2023/06/29 10:10:15;;;;;;;2.80;2.50;;;;;;;;;;4398068;32;67698;-58
2023/06/29 10:13:04;;;;;;;3.80;2.22;;;;;;;;;;4386985;32;59915;-58
2023/06/29 10:15:52;;;;;;;3.33;2.33;;;;;;;;;;4397378;32;71777;-58
2023/06/29 10:18:41;;;;;;;5.25;2.70;;;;;;;;;;4375944;32;69811;-59
2023/06/29 10:21:29;;;;;;;3.58;2.53;;;;;;;;;;4398044;32;66672;-59
2023/06/29 10:24:20;;;;;;;3.20;2.37;;;;;;;;;;4375913;32;72169;-58
2023/06/29 10:27:08;;;;;;;3.90;2.55;;;;;;;;;;4386678;32;65773;-56
2023/06/29 10:29:55;;;;;;;2.92;2.50;;;;;;;;;;4386615;32;67565;-58
2023/06/29 10:32:42;;;;;;;4.70;2.72;;;;;;;;;;4376842;32;60357;-59
2023/06/29 10:35:33;;;;;;;3.87;2.75;;;;;;;;;;4376134;32;69543;-58
2023/06/29 10:38:20;;;;;;;4.00;2.37;;;;;;;;;;4397674;32;65984;-57
2023/06/29 10:41:06;;;;;;;2.87;2.30;;;;;;;;;;4375581;32;68691;-59
2023/06/29 10:43:58;;;;;;;3.30;2.58;;;;;;;;;;4387138;32;60222;-58
2023/06/29 10:46:49;;;;;;;3.25;2.30;;;;;;;;;;4386527;32;70269;-58
2023/06/29 10:49:36;;;;;;;3.50;2.40;;;;;;;;;;4386149;32;70131;-58
2023/06/29 10:52:24;;;;;;;3.70;2.40;;;;;;;;;;4397697;32;67694;-59
2023/06/29 10:55:31;;;;;;;2.65;1.98;;;;;;;;;;4397850;32;71548;-58
2023/06/29 10:58:24;;;;;;;3.62;2.62;;;;;;;;;;4376602;32;66676;-58
2023/06/29 11:01:12;;;;;;;3.00;2.10;;;;;;;;;;4387090;32;67801;-58
2023/06/29 11:03:59;;;;;;;4.50;2.33;;;;;;;;;;4376201;32;66646;-58
2023/06/29 11:06:46;;;;;;;3.62;2.60;;;;;;;;;;4385976;32;72590;-58
2023/06/29 11:09:33;;;;;;;;;;;;;;;;;;4398060;32;64881;-58
2023/06/29 11:12:19;;;;;;;3.58;2.30;;;;;;;;;;4398005;32;68485;-57
2023/06/29 11:15:12;;;;;;;3.33;2.53;;;;;;;;;;4399417;32;59255;-59
2023/06/29 11:18:03;;;;;;;4.32;2.75;;;;;;;;;;4376090;32;71876;-58
2023/06/29 11:20:50;;;;;;;3.15;2.30;;;;;;;;;;4386291;32;69308;-59
2023/06/29 11:23:36;;;;;;;4.20;3.12;;;;;;;;;;4376054;32;67637;-59
2023/06/29 11:26:24;;;;;;;3.65;2.08;;;;;;;;;;4364866;32;72685;-59
2023/06/29 11:29:11;;;;;;;3.75;2.67;;;;;;;;;;4375516;32;71257;-58
2023/06/29 11:32:01;;;;;;;3.40;2.37;;;;;;;;;;4386356;32;69515;-59
2023/06/29 11:34:48;;;;;;;3.50;2.45;;;;;;;;;;4397044;32;67650;-58
2023/06/29 11:37:35;;;;;;;4.28;2.67;;;;;;;;;;4364765;32;71226;-59
2023/06/29 11:40:23;;;;;;;3.62;2.40;;;;;;;;;;4376027;32;65891;-58
2023/06/29 11:43:10;;;;;;;3.53;2.30;;;;;;;;;;4375164;32;68497;-59
2023/06/29 11:45:58;;;;;;;3.70;2.62;;;;;;;;;;4376000;32;60115;-59
2023/06/29 11:48:55;;;;;;;4.45;2.67;;;;;;;;;;4386335;32;70795;-59
2023/06/29 11:51:42;;;;;;;5.95;2.60;;;;;;;;;;4386287;32;69438;-58
2023/06/29 11:54:31;;;;;;;2.45;1.92;;;;;;;;;;4386324;32;67744;-60
2023/06/29 11:57:18;;;;;;;4.47;2.67;;;;;;;;;;4386971;32;59951;-59
2023/06/29 12:00:13;;;;;;;;;;;;;;;;;;4385935;32;70881;-58
2023/06/29 12:03:07;;;;;;;3.47;2.42;;;;;;;;;;4396701;32;69194;-59
2023/06/29 12:05:54;;;;;;;2.85;2.40;;;;;;;;;;4385346;32;68051;-58
2023/06/29 12:08:41;;;;;;;4.12;2.75;;;;;;;;;;4385912;32;70540;-59
2023/06/29 12:11:28;;;;;;;3.37;2.42;;;;;;;;;;4375210;32;64420;-58
2023/06/29 12:14:15;;;;;;;4.10;2.55;;;;;;;;;;4375214;32;67891;-59
2023/06/29 12:17:01;;;;;;;;;;;;;;;;;;4375528;32;61004;-59
2023/06/29 12:19:52;;;;;;;3.75;2.40;;;;;;;;;;4364705;32;73634;-59
2023/06/29 12:22:39;;;;;;;3.40;2.60;;;;;;;;;;4387467;32;66087;-58
2023/06/29 12:25:26;;;;;;;5.07;2.30;;;;;;;;;;4375631;32;67902;-59
2023/06/29 12:28:12;;;;;;;;;;;;;;;;;;4386262;32;59851;-58
2023/06/29 12:30:59;;;;;;;4.05;2.62;;;;;;;;;;4374470;32;70851;-58
2023/06/29 12:33:46;;;;;;;3.45;2.25;;;;;;;;;;4376846;32;69915;-59
2023/06/29 12:36:33;;;;;;;3.87;2.50;;;;;;;;;;4400434;32;67509;-60
2023/06/29 12:39:19;;;;;;;3.15;2.33;;;;;;;;;;4388657;32;71448;-59
2023/06/29 12:42:06;;;;;;;3.20;2.15;;;;;;;;;;4389096;32;70695;-60
2023/06/29 12:44:53;;;;;;;3.17;2.25;;;;;;;;;;4389209;32;69244;-59
2023/06/29 12:47:41;;;;;;;3.20;2.60;;;;;;;;;;4366295;32;67947;-59
2023/06/29 12:50:28;;;;;;;2.75;2.30;;;;;;;;;;4398617;32;71112;-58
2023/06/29 12:53:15;;;;;;;3.50;2.28;;;;;;;;;;4388545;32;66044;-59
2023/06/29 12:56:02;;;;;;;3.08;2.40;;;;;;;;;;4388210;32;67834;-59
2023/06/29 12:58:48;;;;;;;;;;;;;;;;;;4388868;32;60602;-59
2023/06/29 13:01:35;;;;;;;3.17;2.40;;;;;;;;;;4388266;32;69991;-59
2023/06/29 13:04:21;;;;;;;4.90;2.40;;;;;;;;;;4377619;32;69033;-60
2023/06/29 13:07:09;;;;;;;7.72;2.55;;;;;;;;;;4398948;32;68132;-59
2023/06/29 13:09:57;;;;;;;3.97;2.35;;;;;;;;;;4388334;32;59113;-59
2023/06/29 13:12:43;;;;;;;6.97;2.50;;;;;;;;;;4401860;32;69178;-58
2023/06/29 13:15:30;;;;;;;3.47;2.40;;;;;;;;;;4378442;32;69813;-59
2023/06/29 13:18:17;;;;;;;4.75;2.65;;;;;;;;;;4366717;32;67272;-58
2023/06/29 13:21:03;;;;;;;;;;;;;;;;;;4366674;32;72771;-58
2023/06/29 13:23:50;;;;;;;3.42;2.50;;;;;;;;;;4399017;32;66415;-58
2023/06/29 13:26:37;;;;;;;4.00;2.75;;;;;;;;;;4388001;32;67813;-58
2023/06/29 13:29:24;;;;;;;4.07;2.60;;;;;;;;;;4366589;32;60560;-60
2023/06/29 13:32:10;;;;;;;;;;;;;;;;;;4387444;32;72241;-59
2023/06/29 13:34:57;;;;;;;3.50;2.58;;;;;;;;;;4398818;32;65737;-59
2023/06/29 13:37:50;;;;;;;5.72;2.87;;;;;;;;;;4368160;32;68242;-59
2023/06/29 13:40:57;;;;;;;3.95;2.20;;;;;;;;;;4389729;32;61112;-59
2023/06/29 13:43:43;;;;;;;3.45;2.47;;;;;;;;;;4365647;32;70362;-58
2023/06/29 13:46:31;;;;;;;4.90;2.40;;;;;;;;;;4387698;32;68279;-59
2023/06/29 13:49:18;;;;;;;3.72;2.65;;;;;;;;;;4376632;32;66889;-60
2023/06/29 13:52:06;;;;;;;4.30;2.40;;;;;;;;;;4398280;32;70776;-59
2023/06/29 13:54:53;;;;;;;3.25;2.70;;;;;;;;;;4376382;32;65406;-59
2023/06/29 13:57:40;;;;;;;4.87;2.90;;;;;;;;;;4376157;32;69524;-59
2023/06/29 14:00:27;;;;;;;;;;;;;;;;;;4400285;32;67492;-59
2023/06/29 14:03:14;;;;;;;3.78;2.83;;;;;;;;;;4398250;32;71065;-58
2023/06/29 14:06:01;;;;;;;3.78;2.70;;;;;;;;;;4387336;32;64986;-60
2023/06/29 14:08:47;;;;;;;4.32;3.00;;;;;;;;;;4399704;32;67922;-58
2023/06/29 14:11:34;;;;;;;4.18;2.90;;;;;;;;;;4365057;32;60037;-59
2023/06/29 14:14:21;;;;;;;3.67;2.60;;;;;;;;;;4361457;32;70087;-58
2023/06/29 14:17:08;;;;;;;5.55;3.00;;;;;;;;;;4372322;32;69383;-59
2023/06/29 14:19:55;;;;;;;3.87;2.70;;;;;;;;;;4372284;32;66754;-59
2023/06/29 14:22:42;;;;;;;4.97;2.42;;;;;;;;;;4361002;32;60202;-58
2023/06/29 14:25:28;;;;;;;4.12;2.53;;;;;;;;;;4372055;32;69444;-59
2023/06/29 14:28:15;;;;;;;4.05;2.65;;;;;;;;;;4360971;32;69935;-58
2023/06/29 14:31:02;;;;;;;;;;;;;;;;;;4361817;32;67955;-59
2023/06/29 14:33:48;;;;;;;3.75;2.33;;;;;;;;;;4350155;32;71906;-58
2023/06/29 14:36:36;;;;;;;4.82;2.62;;;;;;;;;;4371336;32;65858;-59
2023/06/29 14:39:22;;;;;;;;;;;;;;;;;;4372315;32;67125;-58
2023/06/29 14:42:09;;;;;;;3.80;2.20;;;;;;;;;;4384238;32;59770;-60
2023/06/29 14:44:55;;;;;;;3.40;2.22;;;;;;;;;;4360968;32;71100;-60
2023/06/29 14:47:42;;;;;;;;;;;;;;;;;;4383154;32;65990;-58
2023/06/29 14:50:28;;;;;;;3.50;2.45;;;;;;;;;;4371680;32;68119;-59
2023/06/29 14:53:15;;;;;;;4.50;2.58;;;;;;;;;;4372077;32;60032;-60
2023/06/29 14:56:07;;;;;;;4.85;2.78;;;;;;;;;;4359635;32;71190;-59
2023/06/29 14:58:54;;;;;;;6.10;2.78;;;;;;;;;;4383626;32;69361;-59
2023/06/29 15:01:41;;;;;;;4.07;2.22;;;;;;;;;;4371470;32;67119;-59
2023/06/29 15:04:28;;;;;;;4.00;2.95;;;;;;;;;;4371806;32;71396;-59
2023/06/29 15:07:14;;;;;;;;;;;;;;;;;;4361999;32;65810;-58
2023/06/29 15:10:01;;;;;;;5.35;2.58;;;;;;;;;;4372290;32;69718;-58
2023/06/29 15:12:48;;;;;;;;;;;;;;;;;;4364269;32;67480;-58
2023/06/29 15:15:34;;;;;;;;;;;;;;;;;;4374402;32;71958;-59
2023/06/29 15:18:21;;;;;;;4.82;2.42;;;;;;;;;;4382366;32;65401;-58
2023/06/29 15:21:08;;;;;;;5.40;2.75;;;;;;;;;;4371423;32;68162;-58
2023/06/29 15:23:54;;;;;;;;;;;;;;;;;;4382774;32;59284;-59
2023/06/29 15:26:41;;;;;;;4.50;3.10;;;;;;;;;;4383466;32;69324;-59
2023/06/29 15:29:28;;;;;;;4.82;2.72;;;;;;;;;;4360457;32;68171;-60
2023/06/29 15:32:15;;;;;;;3.90;2.53;;;;;;;;;;4370802;32;68297;-59
2023/06/29 15:35:03;;;;;;;4.72;3.03;;;;;;;;;;4370869;32;60988;-60
2023/06/29 15:37:51;;;;;;;4.07;2.62;;;;;;;;;;4359821;32;70127;-58
2023/06/29 15:40:38;;;;;;;3.53;2.60;;;;;;;;;;4371228;32;69283;-59
2023/06/29 15:43:26;;;;;;;4.28;2.95;;;;;;;;;;4370445;32;68257;-59
2023/06/29 15:46:14;;;;;;;5.28;2.85;;;;;;;;;;4361033;32;71788;-59
2023/06/29 15:49:01;;;;;;;5.18;2.87;;;;;;;;;;4360787;32;64753;-60
2023/06/29 15:51:47;;;;;;;;;;;;;;;;;;4371441;32;67768;-60
2023/06/29 15:54:34;;;;;;;4.43;2.78;;;;;;;;;;4371049;32;60567;-59
2023/06/29 15:57:21;;;;;;;;;;;;;;;;;;4381981;32;70599;-59
2023/06/29 16:00:08;;;;;;;3.67;2.53;;;;;;;;;;4381788;32;65001;-59
2023/06/29 16:02:57;;;;;;;4.85;2.70;;;;;;;;;;4371379;32;67203;-59
2023/06/29 16:05:44;;;;;;;4.95;2.70;;;;;;;;;;4361558;32;60207;-59
2023/06/29 16:08:31;;;;;;;4.07;2.60;;;;;;;;;;4363153;32;70524;-60
2023/06/29 16:11:17;;;;;;;;;;;;;;;;;;4374112;32;68590;-58
2023/06/29 16:14:04;;;;;;;6.45;3.00;;;;;;;;;;4373891;32;67686;-58
2023/06/29 16:16:51;;;;;;;4.50;2.85;;;;;;;;;;4363174;32;71618;-60
2023/06/29 16:19:37;;;;;;;;;;;;;;;;;;4384798;32;65946;-58
2023/06/29 16:22:24;;;;;;;4.15;2.92;;;;;;;;;;4384698;32;67248;-58
2023/06/29 16:25:11;;;;;;;3.97;2.70;;;;;;;;;;4362363;32;67104;-59
2023/06/29 16:27:57;;;;;;;;;;;;;;;;;;4374009;32;71473;-57
2023/06/29 16:30:43;;;;;;;3.45;2.62;;;;;;;;;;4384270;32;65928;-59
2023/06/29 16:33:31;;;;;;;3.83;2.65;;;;;;;;;;4373565;32;66849;-60
2023/06/29 16:36:17;;;;;;;4.55;2.60;;;;;;;;;;4384144;32;59326;-59
2023/06/29 16:39:04;;;;;;;5.55;3.00;;;;;;;;;;4373374;32;70837;-58
2023/06/29 16:41:51;;;;;;;4.10;2.70;;;;;;;;;;4362656;32;68211;-58
2023/06/29 16:44:38;;;;;;;4.40;2.55;;;;;;;;;;4372544;32;67924;-60
2023/06/29 16:47:25;;;;;;;;;;;;;;;;;;4384385;32;71505;-58
2023/06/29 16:50:12;;;;;;;5.15;2.72;;;;;;;;;;4383573;32;69357;-60
2023/06/29 16:52:58;;;;;;;;;;;;;;;;;;4373532;32;68624;-59
2023/06/29 16:55:46;;;;;;;6.57;3.15;;;;;;;;;;4383730;32;67109;-60
2023/06/29 16:58:32;;;;;;;5.45;3.03;;;;;;;;;;4372912;32;70562;-60
2023/06/29 17:01:19;;;;;;;4.25;2.78;;;;;;;;;;4372413;32;66691;-58